Time;durP1;ratioP1;P1;durP2;ratioP2;P2;SDS_P1;SDS_P2;PMS_P1;PMS_P2;Temp;Humidity;BMP_temperature;BMP_pressure;BME280_temperature;BME280_humidity;BME280_pressure;Samples;Min_cycle;Max_cycle;Signal;HPM_P1;HPM_P2
2023/03/29 00:01:48;;;;;;;5.78;2.72;;;7.00;99.90;;;;;;4954367;29;20038;-89
2023/03/29 00:04:49;;;;;;;2.67;2.15;;;6.80;99.90;;;;;;4947122;29;20050;-89
2023/03/29 00:07:14;;;;;;;6.72;2.65;;;7.70;99.90;;;;;;4956320;23;20067;-89
2023/03/29 00:09:47;;;;;;;7.22;2.65;;;7.20;99.90;;;;;;4935543;29;20032;-88
2023/03/29 00:12:20;;;;;;;4.43;2.40;;;7.10;99.90;;;;;;4938852;29;20399;-88
2023/03/29 00:14:46;;;;;;;4.00;2.53;;;7.10;99.90;;;;;;4939343;29;20027;-89
2023/03/29 00:17:25;;;;;;;4.80;2.60;;;7.10;99.90;;;;;;4938994;29;20043;-89
2023/03/29 00:19:56;;;;;;;6.97;2.53;;;6.90;99.90;;;;;;4938573;29;20609;-88
2023/03/29 00:22:31;;;;;;;6.15;2.40;;;7.10;99.90;;;;;;4938723;29;20024;-90
2023/03/29 00:25:15;;;;;;;3.47;2.70;;;7.80;99.90;;;;;;4939162;29;20028;-89
2023/03/29 00:27:50;;;;;;;4.75;2.60;;;7.20;99.90;;;;;;4938963;29;20027;-87
2023/03/29 00:30:32;;;;;;;6.25;3.30;;;8.10;99.90;;;;;;4938618;29;20107;-88
2023/03/29 00:32:58;;;;;;;5.30;3.10;;;7.20;99.90;;;;;;4938389;29;20171;-88
2023/03/29 00:35:24;;;;;;;3.67;2.72;;;7.20;99.90;;;;;;4938645;29;20126;-88
2023/03/29 00:37:51;;;;;;;7.32;2.42;;;7.20;99.90;;;;;;4938868;29;20032;-89
2023/03/29 00:40:17;;;;;;;5.13;2.75;;;7.70;99.90;;;;;;4933156;29;20079;-89
2023/03/29 00:42:49;;;;;;;3.55;2.38;;;7.80;99.90;;;;;;4940244;29;20056;-89
2023/03/29 00:45:29;;;;;;;5.10;2.42;;;7.30;99.90;;;;;;4941985;29;20074;-88
2023/03/29 00:48:07;;;;;;;6.53;2.78;;;7.30;99.90;;;;;;4940154;29;20034;-88
2023/03/29 00:50:42;;;;;;;5.97;3.17;;;7.30;99.90;;;;;;4935802;29;20117;-89
2023/03/29 00:53:11;;;;;;;4.65;2.80;;;7.30;99.90;;;;;;4938767;29;20031;-87
2023/03/29 00:55:52;;;;;;;3.88;2.45;;;7.30;99.90;;;;;;4923837;29;20051;-88
2023/03/29 00:58:25;;;;;;;3.80;2.75;;;7.50;99.90;;;;;;4919538;29;20127;-88
2023/03/29 01:01:00;;;;;;;3.03;2.20;;;7.30;99.90;;;;;;4927988;29;20031;-88
2023/03/29 01:03:32;;;;;;;3.67;2.20;;;7.40;99.90;;;;;;4938205;29;20028;-89
2023/03/29 01:06:21;;;;;;;6.68;3.05;;;7.70;99.90;;;;;;4944896;23;20083;-87
2023/03/29 01:09:00;;;;;;;4.47;2.75;;;7.40;99.90;;;;;;4937694;29;20035;-89
2023/03/29 01:11:50;;;;;;;4.70;3.10;;;7.40;99.90;;;;;;4938699;29;20020;-88
2023/03/29 01:14:25;;;;;;;5.45;2.80;;;8.00;99.90;;;;;;4938387;29;20027;-87
2023/03/29 01:16:52;;;;;;;4.95;2.70;;;7.70;99.90;;;;;;4937994;29;20055;-89
2023/03/29 01:19:33;;;;;;;8.77;3.03;;;8.30;99.90;;;;;;4938393;29;20036;-87
2023/03/29 01:22:05;;;;;;;4.90;2.90;;;7.50;99.90;;;;;;4938425;29;20108;-89
2023/03/29 01:24:49;;;;;;;4.03;2.72;;;8.10;99.90;;;;;;4938357;29;20380;-88
2023/03/29 01:27:48;;;;;;;5.35;3.03;;;7.40;99.90;;;;;;4938124;29;20027;-89
2023/03/29 01:30:25;;;;;;;4.15;2.45;;;7.50;99.90;;;;;;4938406;29;20035;-88
2023/03/29 01:33:04;;;;;;;5.75;3.10;;;7.50;99.90;;;;;;4937457;29;20027;-89
2023/03/29 01:35:48;;;;;;;4.78;3.10;;;8.60;99.90;;;;;;4937804;29;20047;-88
2023/03/29 01:38:44;;;;;;;7.80;3.00;;;8.10;99.90;;;;;;4937797;29;20043;-88
2023/03/29 01:41:11;;;;;;;6.95;3.45;;;6.90;99.90;;;;;;4937612;29;20032;-88
2023/03/29 01:44:03;;;;;;;4.78;2.95;;;7.50;99.90;;;;;;4937267;29;20023;-87
2023/03/29 01:46:46;;;;;;;6.68;3.47;;;7.50;99.90;;;;;;4937542;29;20028;-89
2023/03/29 01:49:28;;;;;;;4.63;3.03;;;7.50;99.90;;;;;;4937505;29;20042;-89
2023/03/29 01:52:14;;;;;;;8.52;3.42;;;7.70;99.90;;;;;;4936923;29;20395;-89
2023/03/29 01:54:49;;;;;;;6.47;2.78;;;7.50;99.90;;;;;;4937566;29;20040;-87
2023/03/29 01:57:25;;;;;;;4.93;2.63;;;7.60;99.90;;;;;;4937106;29;20092;-88
2023/03/29 01:59:59;;;;;;;4.15;2.60;;;7.60;99.90;;;;;;4936500;29;20051;-89
2023/03/29 02:02:29;;;;;;;4.22;3.22;;;8.20;99.90;;;;;;4936960;29;20068;-88
2023/03/29 02:04:56;;;;;;;4.20;2.95;;;8.40;99.90;;;;;;4936939;29;20038;-88
2023/03/29 02:07:30;;;;;;;3.58;2.90;;;7.40;99.90;;;;;;4936662;29;20598;-89
2023/03/29 02:09:59;;;;;;;4.43;3.13;;;7.60;99.90;;;;;;4936999;29;20039;-89
2023/03/29 02:12:37;;;;;;;7.07;3.08;;;8.90;99.90;;;;;;4936969;29;20030;-89
2023/03/29 02:15:19;;;;;;;6.65;3.45;;;8.40;99.90;;;;;;4937009;29;20171;-89
2023/03/29 02:17:55;;;;;;;5.65;3.25;;;8.10;99.90;;;;;;4953116;28;20569;-89
2023/03/29 02:20:39;;;;;;;4.47;2.88;;;8.20;99.90;;;;;;4939169;29;20166;-89
2023/03/29 02:23:26;;;;;;;7.03;3.38;;;8.60;99.90;;;;;;4936741;29;20059;-89
2023/03/29 02:25:58;;;;;;;5.85;3.40;;;7.70;99.90;;;;;;4936258;29;20023;-88
2023/03/29 02:28:36;;;;;;;4.88;3.08;;;7.70;99.90;;;;;;4936739;29;20107;-88
2023/03/29 02:31:24;;;;;;;9.07;2.95;;;8.50;99.90;;;;;;4936528;29;20031;-88
2023/03/29 02:34:07;;;;;;;7.63;3.45;;;7.70;99.90;;;;;;4935256;29;20041;-88
2023/03/29 02:36:39;;;;;;;5.07;3.70;;;7.70;99.90;;;;;;4937023;29;20034;-88
2023/03/29 02:39:14;;;;;;;6.03;2.88;;;7.70;99.90;;;;;;4938926;29;20036;-89
2023/03/29 02:42:00;;;;;;;6.85;3.53;;;7.70;99.90;;;;;;4938427;29;20019;-89
2023/03/29 02:44:44;;;;;;;5.72;3.15;;;7.70;99.90;;;;;;4936264;29;20111;-88
2023/03/29 02:47:35;;;;;;;5.15;3.33;;;7.80;99.90;;;;;;4935984;29;20515;-89
2023/03/29 02:50:20;;;;;;;5.20;3.28;;;7.80;99.90;;;;;;4936574;29;20039;-88
2023/03/29 02:53:00;;;;;;;4.53;3.00;;;8.20;99.90;;;;;;4936186;29;20036;-88
2023/03/29 02:55:53;;;;;;;7.38;3.75;;;7.70;99.90;;;;;;4936459;29;20028;-88
2023/03/29 02:58:19;;;;;;;5.78;3.10;;;7.70;99.90;;;;;;4936046;29;20043;-88
2023/03/29 03:00:57;;;;;;;3.90;3.35;;;8.20;99.90;;;;;;4901085;29;20047;-88
2023/03/29 03:03:41;;;;;;;6.60;3.65;;;7.70;99.90;;;;;;4935920;29;20472;-88
2023/03/29 03:06:20;;;;;;;4.18;3.30;;;8.60;99.90;;;;;;4935654;29;20095;-88
2023/03/29 03:08:45;;;;;;;3.65;3.35;;;8.20;99.90;;;;;;4935394;29;20031;-88
2023/03/29 03:11:31;;;;;;;7.50;3.47;;;7.70;99.90;;;;;;4935722;29;20123;-87
2023/03/29 03:21:16;;;;;;;4.22;3.25;;;7.80;99.90;;;;;;4935747;29;20047;-89
2023/03/29 03:23:42;;;;;;;6.20;3.60;;;7.80;99.90;;;;;;4935603;29;20071;-89
2023/03/29 03:27:00;;;;;;;6.68;3.40;;;7.60;99.90;;;;;;4935806;29;20032;-88
2023/03/29 03:29:27;;;;;;;6.40;3.70;;;7.80;99.90;;;;;;4935572;29;20031;-88
2023/03/29 03:31:58;;;;;;;4.53;3.42;;;7.80;99.90;;;;;;4935619;29;20024;-90
2023/03/29 03:34:25;;;;;;;8.30;3.67;;;8.30;99.90;;;;;;4935642;29;20035;-89
2023/03/29 03:37:00;;;;;;;5.95;3.72;;;7.60;99.90;;;;;;4935348;29;20495;-89
2023/03/29 03:39:26;;;;;;;6.35;3.90;;;8.40;99.90;;;;;;4944806;28;20047;-88
2023/03/29 03:41:53;;;;;;;5.13;3.58;;;8.30;99.90;;;;;;4947277;28;20032;-88
2023/03/29 03:44:21;;;;;;;5.82;3.28;;;9.10;99.90;;;;;;4936392;29;20046;-89
2023/03/29 03:46:59;;;;;;;3.80;3.30;;;7.80;99.90;;;;;;4938524;29;20027;-88
2023/03/29 03:49:33;;;;;;;4.32;3.28;;;7.40;99.90;;;;;;4939843;29;20075;-89
2023/03/29 03:51:59;;;;;;;5.30;3.38;;;7.70;99.90;;;;;;4939614;29;20383;-88
2023/03/29 03:54:26;;;;;;;4.85;4.15;;;7.90;99.90;;;;;;4938991;29;20039;-88
2023/03/29 03:56:51;;;;;;;5.00;3.63;;;7.90;99.90;;;;;;4938505;29;20028;-88
2023/03/29 03:59:17;;;;;;;4.43;3.97;;;7.80;99.90;;;;;;4939542;29;20063;-88
2023/03/29 04:01:43;;;;;;;6.88;4.45;;;7.90;99.90;;;;;;4938943;29;20050;-88
2023/03/29 04:04:22;;;;;;;9.70;4.93;;;7.90;99.90;;;;;;4939473;29;20036;-89
2023/03/29 04:07:13;;;;;;;6.00;3.45;;;8.50;99.90;;;;;;4937060;29;20067;-89
2023/03/29 04:09:50;;;;;;;7.30;3.70;;;7.30;99.90;;;;;;4939225;29;20036;-88
2023/03/29 04:12:18;;;;;;;11.02;4.22;;;7.90;99.90;;;;;;4939153;29;20380;-88
2023/03/29 04:14:56;;;;;;;12.32;4.50;;;8.40;99.90;;;;;;4938729;29;20500;-87
2023/03/29 04:17:34;;;;;;;6.70;4.25;;;8.30;99.90;;;;;;4938596;29;20396;-88
2023/03/29 04:20:20;;;;;;;7.40;4.18;;;8.40;99.90;;;;;;4938687;29;20040;-88
2023/03/29 04:22:55;;;;;;;9.90;4.40;;;6.90;99.90;;;;;;4938101;29;20036;-88
2023/03/29 04:25:27;;;;;;;8.05;4.53;;;8.50;99.90;;;;;;4938565;29;20028;-89
2023/03/29 04:28:05;;;;;;;5.75;3.97;;;8.50;99.90;;;;;;4938408;29;20435;-88
2023/03/29 04:30:31;;;;;;;6.80;4.18;;;7.80;99.90;;;;;;4938579;29;20028;-89
2023/03/29 04:32:58;;;;;;;5.90;4.07;;;8.50;99.90;;;;;;4938877;29;20078;-89
2023/03/29 04:35:38;;;;;;;7.40;3.97;;;8.50;99.90;;;;;;4939388;29;20019;-89
2023/03/29 04:38:10;;;;;;;6.07;4.20;;;8.30;99.90;;;;;;4939251;29;20115;-89
2023/03/29 04:40:49;;;;;;;9.68;4.15;;;8.30;99.90;;;;;;4937967;29;20090;-89
2023/03/29 04:46:10;;;;;;;9.70;4.50;;;7.40;99.90;;;;;;4939109;29;20123;-90
2023/03/29 04:48:47;;;;;;;10.05;4.35;;;7.90;99.90;;;;;;4938448;29;20039;-89
2023/03/29 04:51:28;;;;;;;10.50;4.95;;;8.40;99.90;;;;;;4938643;29;20027;-90
2023/03/29 04:54:00;;;;;;;7.00;4.15;;;9.10;99.90;;;;;;4937787;29;20048;-88
2023/03/29 04:56:41;;;;;;;8.60;4.63;;;8.70;99.90;;;;;;4936886;29;20031;-89
2023/03/29 04:59:15;;;;;;;7.70;4.55;;;8.60;99.90;;;;;;4935160;29;20059;-89
2023/03/29 05:01:51;;;;;;;5.45;4.45;;;8.50;99.90;;;;;;4937469;29;20036;-88
2023/03/29 05:04:17;;;;;;;13.10;6.95;;;8.60;99.90;;;;;;4955382;28;20435;-88
2023/03/29 05:06:52;;;;;;;6.68;4.55;;;8.00;99.90;;;;;;4939776;29;20302;-88
2023/03/29 05:09:34;;;;;;;7.88;4.47;;;8.40;99.90;;;;;;4938529;29;20050;-89
2023/03/29 05:12:08;;;;;;;10.57;4.88;;;8.60;99.90;;;;;;4937918;29;20028;-88
2023/03/29 05:14:46;;;;;;;7.35;4.57;;;8.40;99.90;;;;;;4962047;23;20113;-89
2023/03/29 05:17:12;;;;;;;8.27;4.47;;;8.10;99.90;;;;;;4997034;28;20026;-87
2023/03/29 05:19:45;;;;;;;12.25;5.05;;;8.00;99.90;;;;;;4995163;28;20044;-90
2023/03/29 05:22:11;;;;;;;6.43;4.53;;;8.00;99.90;;;;;;4992822;28;20034;-90
2023/03/29 05:24:46;;;;;;;10.38;4.40;;;8.10;99.90;;;;;;4995726;28;20105;-90
2023/03/29 05:27:28;;;;;;;11.68;4.72;;;8.80;99.90;;;;;;4995696;28;20026;-90
2023/03/29 05:29:54;;;;;;;7.55;3.90;;;8.60;99.90;;;;;;4995887;28;20114;-91
2023/03/29 05:32:38;;;;;;;9.15;5.10;;;8.90;99.90;;;;;;4992836;28;20498;-90
2023/03/29 05:35:19;;;;;;;10.00;4.75;;;8.10;99.90;;;;;;4996292;28;20430;-90
2023/03/29 05:37:46;;;;;;;;;;;8.70;99.90;;;;;;4996588;28;20534;-91
2023/03/29 05:40:31;;;;;;;10.80;5.05;;;8.70;99.90;;;;;;4996254;28;19906;-91
2023/03/29 05:43:01;;;;;;;7.45;4.32;;;8.10;99.90;;;;;;4994962;28;20029;-90
2023/03/29 05:45:44;;;;;;;8.35;5.32;;;8.20;99.90;;;;;;4995769;28;20049;-90
2023/03/29 05:48:12;;;;;;;14.00;5.43;;;8.60;99.90;;;;;;4982576;23;20055;-90
2023/03/29 05:50:52;;;;;;;7.65;4.88;;;8.10;99.90;;;;;;4967813;28;20035;-90
2023/03/29 05:53:38;;;;;;;9.23;5.45;;;8.70;99.90;;;;;;4976769;28;20027;-90
2023/03/29 05:56:23;;;;;;;11.02;5.25;;;8.10;99.90;;;;;;4976362;28;20027;-90
2023/03/29 05:58:49;;;;;;;10.52;5.75;;;8.50;99.90;;;;;;4953477;23;20139;-89
2023/03/29 06:04:42;;;;;;;9.23;6.00;;;8.10;99.90;;;;;;4934641;29;20040;-90
2023/03/29 06:07:23;;;;;;;13.35;5.85;;;8.40;99.90;;;;;;4937944;29;20043;-90
2023/03/29 06:10:08;;;;;;;13.77;6.20;;;9.50;99.90;;;;;;4936550;29;20031;-90
2023/03/29 06:12:50;;;;;;;9.60;5.28;;;8.20;99.90;;;;;;4938303;29;20026;-91
2023/03/29 06:15:31;;;;;;;7.90;5.47;;;8.30;99.90;;;;;;4937629;29;20121;-90
2023/03/29 06:18:04;;;;;;;11.50;5.68;;;8.90;99.90;;;;;;4944086;23;20063;-91
2023/03/29 06:20:30;;;;;;;7.85;5.45;;;8.20;99.90;;;;;;4936750;29;20444;-91
2023/03/29 06:23:14;;;;;;;11.07;4.85;;;8.20;99.90;;;;;;4937739;29;20099;-89
2023/03/29 06:25:54;;;;;;;8.77;5.22;;;8.20;99.90;;;;;;4937693;29;20031;-91
2023/03/29 06:28:29;;;;;;;6.55;5.60;;;8.80;99.90;;;;;;4942274;29;20035;-90
2023/03/29 06:31:00;;;;;;;6.43;5.32;;;8.00;99.90;;;;;;4943631;29;20032;-90
2023/03/29 06:36:33;;;;;;;8.25;5.35;;;8.60;99.90;;;;;;4937529;29;20444;-90
2023/03/29 06:39:13;;;;;;;10.02;6.22;;;9.00;99.90;;;;;;4936665;29;20032;-90
2023/03/29 06:41:54;;;;;;;10.48;6.15;;;8.50;99.90;;;;;;4936850;29;20488;-90
2023/03/29 06:44:32;;;;;;;9.02;5.25;;;9.20;99.90;;;;;;4937283;29;20155;-90
2023/03/29 06:47:22;;;;;;;10.20;6.38;;;8.90;99.90;;;;;;4937425;29;20032;-90
2023/03/29 06:49:56;;;;;;;10.73;5.57;;;8.50;99.90;;;;;;4937557;29;20099;-90
2023/03/29 06:52:38;;;;;;;7.88;6.28;;;9.10;99.90;;;;;;4936950;29;20479;-90
2023/03/29 06:55:12;;;;;;;9.15;5.93;;;9.00;99.90;;;;;;4946999;29;20110;-90
2023/03/29 06:58:03;;;;;;;9.48;5.68;;;8.70;99.90;;;;;;4955396;29;20024;-91
2023/03/29 07:00:41;;;;;;;14.15;5.93;;;9.00;99.90;;;;;;4947335;29;20042;-90
2023/03/29 07:03:25;;;;;;;12.20;6.45;;;9.10;99.90;;;;;;4934414;29;20024;-90
2023/03/29 07:06:13;;;;;;;9.32;6.03;;;9.00;99.90;;;;;;4934299;29;20449;-90
2023/03/29 07:09:29;;;;;;;9.82;6.45;;;8.90;99.90;;;;;;4969027;23;20097;-91
2023/03/29 07:12:15;;;;;;;;;;;;;;;;;;;;;
2023/03/29 07:14:41;;;;;;;6.95;5.78;;;8.60;99.90;;;;;;4913341;29;20046;-91
2023/03/29 07:17:23;;;;;;;7.97;6.18;;;9.00;99.90;;;;;;4965607;23;20142;-90
2023/03/29 07:19:57;;;;;;;8.75;6.43;;;8.60;99.90;;;;;;4952612;28;20042;-90
2023/03/29 07:22:23;;;;;;;10.63;5.97;;;9.00;99.90;;;;;;4954059;28;20134;-87
2023/03/29 07:25:00;;;;;;;12.90;6.28;;;8.60;99.90;;;;;;4953580;28;20114;-90
2023/03/29 07:27:28;;;;;;;11.43;7.50;;;10.10;99.90;;;;;;4954290;28;20543;-91
2023/03/29 07:30:11;;;;;;;10.35;6.53;;;10.00;99.90;;;;;;4954737;28;20027;-90
2023/03/29 07:32:56;;;;;;;12.45;6.30;;;8.70;99.90;;;;;;4955338;29;20031;-90
2023/03/29 07:37:57;;;;;;;13.07;6.75;;;8.80;99.90;;;;;;5020769;23;20047;-90
2023/03/29 07:47:34;;;;;;;12.55;7.35;;;8.60;99.90;;;;;;4946092;23;20144;-90
2023/03/29 07:50:03;;;;;;;12.45;7.82;;;9.70;99.90;;;;;;4936740;29;20044;-89
2023/03/29 07:52:48;;;;;;;10.13;7.35;;;8.90;99.90;;;;;;4923881;29;20032;-90
2023/03/29 07:55:35;;;;;;;14.05;7.32;;;8.60;99.90;;;;;;4971330;23;20099;-90
2023/03/29 07:58:19;;;;;;;12.40;7.40;;;8.90;99.90;;;;;;4916202;29;20035;-90
2023/03/29 08:14:05;;;;;;;;;;;;;;;;;;;;;
2023/03/29 08:16:57;;;;;;;11.15;8.20;;;8.60;99.90;;;;;;4884445;29;20044;-87
2023/03/29 08:38:12;;;;;;;16.40;9.63;;;10.10;99.90;;;;;;5241313;23;20127;-92
2023/03/29 08:41:24;;;;;;;12.45;8.88;;;9.30;99.90;;;;;;4919738;29;20040;-92
2023/03/29 08:46:56;;;;;;;24.30;9.05;;;9.40;99.90;;;;;;4975665;23;20523;-89
2023/03/29 09:59:00;;;;;;;16.80;12.13;;;10.00;99.90;;;;;;5501951;23;20098;-86
2023/03/29 10:31:06;;;;;;;13.63;11.85;;;10.00;99.90;;;;;;5701050;23;20526;-91
2023/03/29 10:36:54;;;;;;;17.98;12.10;;;10.10;99.90;;;;;;4936053;27;20056;-89
2023/03/29 10:39:49;;;;;;;19.02;12.85;;;10.20;99.90;;;;;;4942916;29;20554;-90
2023/03/29 10:42:24;;;;;;;18.33;13.20;;;10.20;99.90;;;;;;4913603;29;20483;-90
2023/03/29 12:01:48;;;;;;;13.77;9.38;;;10.80;99.90;;;;;;4955410;28;20555;-89
2023/03/29 12:05:08;;;;;;;;;;;;;;;;;;;;;
2023/03/29 12:08:16;;;;;;;19.73;12.38;;;11.30;99.90;;;;;;4872188;29;20041;-90
2023/03/29 12:14:37;;;;;;;17.05;11.65;;;10.70;99.90;;;;;;4939278;29;20503;-88
2023/03/29 12:29:07;;;;;;;;;;;;;;;;;;;;;
2023/03/29 12:34:54;;;;;;;16.77;12.73;;;10.90;99.90;;;;;;4917467;29;20441;-90
2023/03/29 12:38:07;;;;;;;14.23;12.75;;;10.90;99.90;;;;;;4918324;29;20036;-89
2023/03/29 12:41:21;;;;;;;16.20;13.55;;;11.00;99.90;;;;;;4945935;23;20051;-89
2023/03/29 12:44:03;;;;;;;23.35;14.25;;;11.50;99.90;;;;;;4956945;29;20064;-90
2023/03/29 12:47:33;;;;;;;;;;;;;;;;;;;;;
2023/03/29 13:15:51;;;;;;;28.60;16.93;;;11.70;99.90;;;;;;4917099;28;20583;-89
2023/03/29 13:19:05;;;;;;;22.88;16.65;;;11.40;99.90;;;;;;4918873;29;20276;-89
2023/03/29 13:50:09;;;;;;;27.73;19.92;;;11.80;99.90;;;;;;5035645;23;20082;-90
2023/03/29 13:59:17;;;;;;;28.23;20.08;;;12.30;99.90;;;;;;4916757;28;20393;-89
2023/03/29 14:05:13;;;;;;;;;;;;;;;;;;;;;
2023/03/29 14:18:33;;;;;;;;;;;;;;;;;;;;;
2023/03/29 14:24:37;;;;;;;23.27;19.45;;;12.40;99.90;;;;;;4935618;26;20400;-90
2023/03/29 14:27:57;;;;;;;24.15;19.60;;;12.50;99.90;;;;;;4937044;29;20468;-90
2023/03/29 14:30:44;;;;;;;19.95;16.88;;;12.10;99.90;;;;;;4883232;29;20528;-89
2023/03/29 14:33:46;;;;;;;19.88;16.50;;;12.60;99.90;;;;;;4937567;29;20507;-90
2023/03/29 14:36:29;;;;;;;17.05;15.27;;;12.70;99.90;;;;;;4936070;29;20039;-89
2023/03/29 15:15:39;;;;;;;9.65;8.38;;;13.20;99.90;;;;;;4896370;29;20112;-87
2023/03/29 15:18:37;;;;;;;11.05;8.18;;;13.30;99.90;;;;;;4893747;29;20092;-87
2023/03/29 15:24:01;;;;;;;10.80;9.70;;;13.10;99.90;;;;;;4986803;23;20592;-91
2023/03/29 15:38:11;;;;;;;12.63;9.45;;;13.20;99.90;;;;;;5157959;23;20063;-89
2023/03/29 15:45:10;;;;;;;10.15;9.35;;;12.70;99.90;;;;;;4950775;28;20547;-89
2023/03/29 15:48:07;;;;;;;10.52;9.63;;;13.00;99.90;;;;;;4862257;29;20468;-91
2023/03/29 15:50:58;;;;;;;9.88;9.05;;;12.70;99.90;;;;;;4965983;23;20014;-90
2023/03/29 16:00:04;;;;;;;9.77;8.98;;;12.90;99.90;;;;;;4913031;29;20400;-91
2023/03/29 16:02:42;;;;;;;11.98;9.15;;;12.60;99.90;;;;;;4891026;29;20044;-91
2023/03/29 16:05:44;;;;;;;;;;;;;;;;;;;;;
2023/03/29 16:08:40;;;;;;;8.32;7.30;;;12.90;99.90;;;;;;4902900;29;20040;-89
2023/03/29 16:11:47;;;;;;;9.27;8.27;;;13.00;99.90;;;;;;4913215;29;20162;-90
2023/03/29 16:14:50;;;;;;;;;;;;;;;;;;;;;
2023/03/29 16:17:17;;;;;;;8.32;7.20;;;13.00;99.90;;;;;;4852206;29;20046;-88
2023/03/29 16:20:19;;;;;;;;;;;;;;;;;;;;;
2023/03/29 16:23:12;;;;;;;10.77;7.38;;;13.00;99.90;;;;;;4873205;29;20044;-89
2023/03/29 16:25:53;;;;;;;8.85;6.45;;;13.00;99.90;;;;;;4903818;29;20033;-89
2023/03/29 16:28:33;;;;;;;8.50;6.50;;;13.40;99.90;;;;;;4903729;29;20119;-89
2023/03/29 16:31:11;;;;;;;;;;;13.00;99.90;;;;;;4903431;29;20047;-90
2023/03/29 16:33:55;;;;;;;8.57;6.88;;;12.90;99.90;;;;;;4903512;29;19907;-90
2023/03/29 16:36:32;;;;;;;8.88;5.85;;;14.10;99.90;;;;;;4916512;23;20103;-89
2023/03/29 16:39:20;;;;;;;7.03;5.22;;;12.30;99.90;;;;;;4922730;29;20040;-90
2023/03/29 16:42:33;;;;;;;5.50;5.00;;;12.90;99.90;;;;;;4922875;29;20044;-89
2023/03/29 16:45:24;;;;;;;6.00;5.18;;;12.40;99.90;;;;;;4923542;29;20060;-89
2023/03/29 16:48:05;;;;;;;5.53;5.00;;;12.80;99.90;;;;;;4890672;23;20041;-89
2023/03/29 16:50:50;;;;;;;8.82;5.55;;;12.50;99.90;;;;;;4950791;29;20482;-90
2023/03/29 16:53:41;;;;;;;8.43;6.00;;;13.40;99.90;;;;;;4948609;29;20032;-89
2023/03/29 16:56:07;;;;;;;9.10;6.13;;;12.90;99.90;;;;;;4938696;29;20051;-89
2023/03/29 16:59:20;;;;;;;9.10;6.35;;;13.50;99.90;;;;;;4938296;29;20098;-90
2023/03/29 17:02:09;;;;;;;9.15;5.82;;;12.70;99.90;;;;;;4938658;29;20031;-92
2023/03/29 17:05:09;;;;;;;;;;;;;;;;;;;;;
2023/03/29 17:10:34;;;;;;;16.33;6.07;;;12.80;99.90;;;;;;4909925;29;20060;-89
2023/03/29 17:13:28;;;;;;;7.15;6.25;;;12.70;99.90;;;;;;4911897;29;20334;-90
2023/03/29 17:16:45;;;;;;;9.52;5.88;;;12.70;99.90;;;;;;4913509;29;20024;-89
2023/03/29 17:25:41;;;;;;;11.70;5.57;;;12.70;99.90;;;;;;5162834;23;20055;-89
2023/03/29 17:31:47;;;;;;;9.43;6.85;;;13.20;99.90;;;;;;4935422;29;20058;-89
2023/03/29 17:50:56;;;;;;;;;;;;;;;;;;;;;
2023/03/29 18:02:39;;;;;;;10.65;8.25;;;12.60;99.90;;;;;;4939319;29;20476;-89
2023/03/29 18:08:40;;;;;;;9.07;8.10;;;12.50;99.90;;;;;;4988040;23;20056;-90
2023/03/29 18:16:44;;;;;;;8.82;7.75;;;12.50;99.90;;;;;;5067365;23;20503;-89
2023/03/29 18:19:18;;;;;;;9.13;8.18;;;12.60;99.90;;;;;;4931392;29;20031;-88
2023/03/29 18:22:11;;;;;;;9.73;8.73;;;12.00;99.90;;;;;;5197754;23;20030;-87
2023/03/29 18:25:23;;;;;;;11.02;8.50;;;12.00;99.90;;;;;;4928411;29;20044;-89
2023/03/29 18:30:39;;;;;;;;;;;;;;;;;;;;;
2023/03/29 18:50:54;;;;;;;9.85;8.85;;;12.40;99.90;;;;;;4976076;23;20128;-90
2023/03/29 18:57:21;;;;;;;11.77;10.48;;;12.00;99.90;;;;;;4904865;29;20067;-90
2023/03/29 19:00:36;;;;;;;12.75;9.73;;;12.50;99.90;;;;;;4911063;29;20497;-90
2023/03/29 19:07:34;;;;;;;10.07;9.10;;;12.30;99.90;;;;;;4846593;29;20049;-90
2023/03/29 19:10:12;;;;;;;9.95;8.70;;;12.30;99.90;;;;;;4777585;29;20038;-89
2023/03/29 19:12:37;;;;;;;9.27;8.30;;;12.30;99.90;;;;;;4803995;29;20031;-90
2023/03/29 19:15:12;;;;;;;9.68;8.65;;;12.20;99.90;;;;;;4803789;29;20441;-90
2023/03/29 19:17:45;;;;;;;9.73;8.65;;;12.70;99.90;;;;;;4868272;29;20468;-89
2023/03/29 19:20:19;;;;;;;9.35;8.32;;;12.20;99.90;;;;;;4890429;29;20085;-89
2023/03/29 19:23:33;;;;;;;10.75;8.23;;;12.80;99.90;;;;;;4959250;28;20023;-90
2023/03/29 19:44:01;;;;;;;9.88;8.05;;;12.30;99.90;;;;;;5249381;23;20511;-89
2023/03/29 20:45:53;;;;;;;11.98;8.55;;;12.40;99.90;;;;;;5737886;23;20059;-91
2023/03/29 20:48:24;;;;;;;12.45;8.38;;;13.00;99.90;;;;;;4957996;29;20031;-88
2023/03/29 21:13:32;;;;;;;12.75;7.63;;;12.10;99.90;;;;;;4939241;29;20054;-90
2023/03/29 21:31:04;;;;;;;10.00;7.03;;;12.30;99.90;;;;;;5099306;23;20334;31
2023/03/29 21:33:30;;;;;;;14.13;8.15;;;12.30;99.90;;;;;;4954289;29;20058;-89
2023/03/29 21:35:59;;;;;;;19.75;7.90;;;11.90;99.90;;;;;;4957031;29;20027;-90
2023/03/29 21:38:25;;;;;;;10.60;6.90;;;13.00;99.90;;;;;;4953253;28;20034;-89
2023/03/29 21:43:37;;;;;;;9.50;6.15;;;12.30;99.90;;;;;;5001220;23;20060;-90
2023/03/29 21:46:09;;;;;;;9.80;6.57;;;11.90;99.90;;;;;;4918109;29;20028;-90
2023/03/29 21:48:34;;;;;;;8.80;6.95;;;12.30;99.90;;;;;;4918518;29;20028;-89
2023/03/29 21:51:06;;;;;;;16.52;7.55;;;13.00;99.90;;;;;;4918841;29;20035;-90
2023/03/29 21:53:31;;;;;;;9.68;6.72;;;12.30;99.90;;;;;;4916055;29;20078;-90
2023/03/29 21:56:12;;;;;;;11.45;6.68;;;13.40;99.90;;;;;;4916334;29;20031;-91
2023/03/29 21:58:48;;;;;;;13.82;6.63;;;12.50;99.90;;;;;;4915613;29;20024;-91
2023/03/29 22:01:16;;;;;;;14.05;6.60;;;11.90;99.90;;;;;;4915081;29;20047;-91
2023/03/29 22:03:46;;;;;;;11.07;7.32;;;13.00;99.90;;;;;;4910684;29;20036;-90
2023/03/29 22:06:14;;;;;;;10.73;6.60;;;12.30;99.90;;;;;;4915664;29;20047;-91
2023/03/29 22:08:45;;;;;;;7.22;6.53;;;12.30;99.90;;;;;;4916405;29;20031;-91
2023/03/29 22:11:15;;;;;;;13.95;7.15;;;13.20;99.90;;;;;;4918306;29;20032;-91
2023/03/29 22:13:42;;;;;;;11.40;6.33;;;12.30;99.90;;;;;;4917885;29;20031;-91
2023/03/29 22:16:42;;;;;;;8.25;7.07;;;13.20;99.90;;;;;;4918445;29;20115;-90
2023/03/29 22:19:42;;;;;;;9.40;5.93;;;11.70;99.90;;;;;;4916312;29;20072;-90
2023/03/29 22:22:20;;;;;;;8.40;6.30;;;12.30;99.90;;;;;;4915597;29;20071;-91
2023/03/29 22:25:03;;;;;;;;;;;;;;;;;;;;;
2023/03/29 22:27:50;;;;;;;12.48;6.40;;;12.30;99.90;;;;;;4923681;29;20131;-91
2023/03/29 22:30:19;;;;;;;8.98;5.65;;;12.30;99.90;;;;;;4918460;29;20388;-91
2023/03/29 22:32:45;;;;;;;9.82;6.07;;;12.30;99.90;;;;;;4917841;29;20043;-91
2023/03/29 22:35:16;;;;;;;8.88;5.93;;;12.60;99.90;;;;;;4917847;29;20380;-92
2023/03/29 22:37:42;;;;;;;6.28;5.30;;;12.20;99.90;;;;;;4917595;29;20028;-91
2023/03/29 22:40:09;;;;;;;13.95;6.25;;;13.00;99.90;;;;;;4918274;29;20555;-91
2023/03/29 22:42:42;;;;;;;10.48;6.15;;;12.80;99.90;;;;;;4917575;29;20052;-90
2023/03/29 22:45:19;;;;;;;9.88;5.75;;;12.30;99.90;;;;;;4920071;29;20388;-90
2023/03/29 22:47:48;;;;;;;8.60;6.03;;;11.80;99.90;;;;;;4930540;29;20028;-90
2023/03/29 22:50:45;;;;;;;11.68;5.95;;;13.10;99.90;;;;;;4929287;29;20055;-90
2023/03/29 22:53:16;;;;;;;12.93;6.97;;;12.10;99.90;;;;;;4915267;29;20060;-89
2023/03/29 22:56:11;;;;;;;6.63;5.72;;;12.80;99.90;;;;;;4923497;29;20511;-89
2023/03/29 22:59:02;;;;;;;9.48;5.88;;;12.30;99.90;;;;;;4877928;29;20044;-89
2023/03/29 23:01:28;;;;;;;9.27;5.30;;;12.80;99.90;;;;;;4869925;29;20049;-90
2023/03/29 23:07:16;;;;;;;20.67;6.20;;;13.30;99.90;;;;;;4878112;29;20068;-89
2023/03/29 23:09:50;;;;;;;13.73;5.25;;;13.70;99.90;;;;;;4845877;29;20120;-90
2023/03/29 23:15:50;;;;;;;10.45;5.50;;;12.30;99.90;;;;;;4868183;29;20044;-91
2023/03/29 23:18:29;;;;;;;6.80;5.43;;;12.30;99.90;;;;;;4876464;29;20448;-91
2023/03/29 23:21:04;;;;;;;8.15;5.18;;;12.90;99.90;;;;;;4877981;29;20033;-90
2023/03/29 23:23:49;;;;;;;12.35;5.55;;;12.10;99.90;;;;;;4877867;29;20041;-89
2023/03/29 23:26:15;;;;;;;13.20;5.20;;;12.30;99.90;;;;;;4877508;29;20025;-89
2023/03/29 23:28:50;;;;;;;10.88;5.45;;;13.10;99.90;;;;;;4888871;29;20039;-89
2023/03/29 23:31:22;;;;;;;8.05;4.80;;;12.30;99.90;;;;;;4916670;29;20028;-90
2023/03/29 23:33:51;;;;;;;7.78;5.03;;;11.00;99.90;;;;;;4917124;29;20087;-90
2023/03/29 23:36:21;;;;;;;9.30;4.45;;;12.30;99.90;;;;;;4917127;29;20032;-90
2023/03/29 23:39:11;;;;;;;13.80;4.93;;;11.30;99.90;;;;;;4884873;29;20495;-89
2023/03/29 23:41:40;;;;;;;8.97;4.20;;;12.60;99.90;;;;;;4917407;29;20040;-90
2023/03/29 23:44:09;;;;;;;8.57;3.90;;;12.90;99.90;;;;;;4917237;29;20156;-89
2023/03/29 23:46:43;;;;;;;7.05;3.58;;;12.50;99.90;;;;;;4916080;29;20036;-89
2023/03/29 23:49:18;;;;;;;8.05;3.72;;;12.00;99.90;;;;;;4935746;29;20037;-90
2023/03/29 23:51:47;;;;;;;10.65;3.75;;;12.60;99.90;;;;;;4920475;29;20495;-90
2023/03/29 23:54:19;;;;;;;4.95;3.95;;;13.00;99.90;;;;;;4917171;29;20036;-90
2023/03/29 23:56:47;;;;;;;4.28;2.97;;;12.20;99.90;;;;;;4916164;29;20417;-89
